Time;durP1;ratioP1;P1;durP2;ratioP2;P2;SDS_P1;SDS_P2;PMS_P1;PMS_P2;Temp;Humidity;BMP_temperature;BMP_pressure;BME280_temperature;BME280_humidity;BME280_pressure;Samples;Min_cycle;Max_cycle;Signal;HPM_P1;HPM_P2
2022/08/09 00:02:33;;;;;;;;;;;21.70;76.50;;;;;;5094326;28;20254;-64
2022/08/09 00:05:02;;;;;;;;;;;21.70;76.80;;;;;;5094202;28;20197;-64
2022/08/09 00:07:49;;;;;;;;;;;21.60;77.00;;;;;;5093809;28;20732;-64
2022/08/09 00:10:21;;;;;;;;;;;21.50;77.00;;;;;;5094038;28;20209;-64
2022/08/09 00:12:52;;;;;;;;;;;21.50;77.20;;;;;;5094336;28;20197;-64
2022/08/09 00:15:20;;;;;;;;;;;21.50;77.50;;;;;;5094035;28;20074;-64
2022/08/09 00:18:02;;;;;;;;;;;21.40;77.50;;;;;;5093853;28;20581;-64
2022/08/09 00:20:38;;;;;;;;;;;21.40;77.60;;;;;;5093565;28;20236;-64
2022/08/09 00:23:16;;;;;;;;;;;21.40;77.80;;;;;;5094029;28;20219;-64
2022/08/09 00:26:04;;;;;;;;;;;21.30;77.90;;;;;;5093810;28;20688;-65
2022/08/09 00:28:33;;;;;;;;;;;21.30;77.90;;;;;;5093349;28;20670;-64
2022/08/09 00:31:03;;;;;;;;;;;21.30;77.90;;;;;;5092959;28;20731;-65
2022/08/09 00:33:51;;;;;;;;;;;21.30;78.40;;;;;;5093675;28;20248;-64
2022/08/09 00:36:19;;;;;;;;;;;21.20;78.30;;;;;;5093602;28;20198;-65
2022/08/09 00:38:47;;;;;;;;;;;21.20;78.50;;;;;;5093212;28;20205;-65
2022/08/09 00:41:19;;;;;;;;;;;21.20;78.80;;;;;;5093228;28;20667;-64
2022/08/09 00:44:08;;;;;;;;;;;21.10;78.50;;;;;;5093645;28;20198;-64
2022/08/09 00:46:54;;;;;;;;;;;21.10;78.80;;;;;;5093274;28;20190;-64
2022/08/09 00:49:32;;;;;;;;;;;21.00;79.00;;;;;;5092954;28;20638;-64
2022/08/09 00:52:01;;;;;;;;;;;21.00;79.30;;;;;;5093279;28;20209;-64
2022/08/09 00:54:33;;;;;;;;;;;21.00;79.40;;;;;;5093382;28;20198;-65
2022/08/09 00:57:03;;;;;;;;;;;20.90;79.60;;;;;;5093011;28;20258;-64
2022/08/09 00:59:39;;;;;;;;;;;20.90;79.30;;;;;;5092471;28;20221;-64
2022/08/09 01:02:15;;;;;;;;;;;20.80;79.40;;;;;;5093247;28;20201;-64
2022/08/09 01:04:48;;;;;;;;;;;20.80;79.60;;;;;;5093036;28;20197;-64
2022/08/09 01:07:20;;;;;;;;;;;20.80;79.90;;;;;;5092563;28;20246;-64
2022/08/09 01:10:10;;;;;;;;;;;20.80;80.00;;;;;;5092682;28;20246;-64
2022/08/09 01:12:40;;;;;;;;;;;20.70;80.10;;;;;;5092740;28;20205;-64
2022/08/09 01:15:12;;;;;;;;;;;20.70;80.20;;;;;;5092850;28;20205;-64
2022/08/09 01:17:45;;;;;;;;;;;20.70;80.20;;;;;;5092696;28;20201;-64
2022/08/09 01:20:18;;;;;;;;;;;20.60;80.50;;;;;;5092390;28;20593;-64
2022/08/09 01:23:12;;;;;;;;;;;20.60;80.30;;;;;;5092657;28;20576;-64
2022/08/09 01:26:13;;;;;;;;;;;20.60;80.50;;;;;;5092737;28;20242;-65
2022/08/09 01:28:44;;;;;;;;;;;20.50;81.10;;;;;;5091837;28;20205;-64
2022/08/09 01:31:14;;;;;;;;;;;20.50;81.20;;;;;;5091915;28;20097;-64
2022/08/09 01:34:03;;;;;;;;;;;20.40;80.90;;;;;;5092501;28;20952;-64
2022/08/09 01:36:36;;;;;;;;;;;20.40;81.10;;;;;;5092482;28;21228;-64
2022/08/09 01:39:06;;;;;;;;;;;20.40;81.30;;;;;;5092071;28;21206;-65
2022/08/09 01:41:35;;;;;;;;;;;20.40;81.40;;;;;;5092051;28;25092;-64
2022/08/09 01:44:22;;;;;;;;;;;20.30;81.50;;;;;;5092621;28;20814;-64
2022/08/09 01:46:50;;;;;;;;;;;20.30;82.00;;;;;;5092168;28;20263;-65
2022/08/09 01:49:20;;;;;;;;;;;20.30;81.80;;;;;;5091876;28;20265;-65
2022/08/09 01:51:53;;;;;;;;;;;20.40;81.80;;;;;;5092264;28;20114;-64
2022/08/09 01:54:22;;;;;;;;;;;20.30;81.90;;;;;;5091991;28;20205;-64
2022/08/09 01:56:51;;;;;;;;;;;20.20;82.30;;;;;;5092095;28;20732;-64
2022/08/09 01:59:20;;;;;;;;;;;20.20;82.50;;;;;;5091741;28;20844;-64
2022/08/09 02:01:53;;;;;;;;;;;20.10;83.20;;;;;;5091781;28;20845;-64
2022/08/09 02:04:28;;;;;;;;;;;20.10;82.80;;;;;;5091980;28;20237;-64
2022/08/09 02:07:12;;;;;;;;;;;20.20;83.10;;;;;;5091686;28;20702;-64
2022/08/09 02:10:02;;;;;;;;;;;20.00;83.60;;;;;;5091430;28;20277;-65
2022/08/09 02:12:32;;;;;;;;;;;20.00;83.00;;;;;;5092032;28;20287;-64
2022/08/09 02:15:01;;;;;;;;;;;19.90;83.40;;;;;;5091846;28;20910;-64
2022/08/09 02:17:35;;;;;;;;;;;19.90;83.70;;;;;;5095960;28;20195;-64
2022/08/09 02:20:23;;;;;;;;;;;19.90;83.70;;;;;;5098178;28;25074;-64
2022/08/09 02:23:02;;;;;;;;;;;19.80;83.80;;;;;;5098647;28;20134;-64
2022/08/09 02:25:34;;;;;;;;;;;19.80;84.10;;;;;;5098699;28;20709;-64
2022/08/09 02:28:14;;;;;;;;;;;19.70;84.20;;;;;;5097787;28;25085;-64
2022/08/09 02:30:45;;;;;;;;;;;19.80;84.30;;;;;;5097766;28;20122;-64
2022/08/09 02:33:18;;;;;;;;;;;19.70;84.70;;;;;;5098469;28;20246;-64
2022/08/09 02:35:52;;;;;;;;;;;19.70;84.90;;;;;;5098451;28;20608;-64
2022/08/09 02:38:31;;;;;;;;;;;19.60;85.20;;;;;;5098320;28;25105;-64
2022/08/09 02:41:03;;;;;;;;;;;19.60;85.40;;;;;;5098201;28;20109;-64
2022/08/09 02:43:32;;;;;;;;;;;19.50;85.60;;;;;;5098259;28;20290;-64
2022/08/09 02:46:20;;;;;;;;;;;19.50;85.90;;;;;;5098336;28;20222;-64
2022/08/09 02:48:50;;;;;;;;;;;19.50;86.30;;;;;;5097759;28;25080;-64
2022/08/09 02:51:20;;;;;;;;;;;19.50;86.30;;;;;;5098031;28;20639;-64
2022/08/09 02:53:50;;;;;;;;;;;19.50;86.70;;;;;;5098144;28;21357;-64
2022/08/09 02:56:28;;;;;;;;;;;19.50;86.50;;;;;;5098266;28;20914;-64
2022/08/09 02:58:56;;;;;;;;;;;19.40;87.00;;;;;;5098297;28;20362;-64
2022/08/09 03:01:25;;;;;;;;;;;19.30;87.80;;;;;;5097964;28;21173;-65
2022/08/09 03:04:12;;;;;;;;;;;19.30;87.60;;;;;;5097942;28;20411;-64
2022/08/09 03:06:47;;;;;;;;;;;19.20;88.10;;;;;;5098288;28;20250;-64
2022/08/09 03:09:16;;;;;;;;;;;19.20;88.30;;;;;;5098170;28;20368;-64
2022/08/09 03:11:44;;;;;;;;;;;19.20;88.50;;;;;;5097941;28;20474;-65
2022/08/09 03:14:32;;;;;;;;;;;19.20;88.60;;;;;;5097896;28;20649;-64
2022/08/09 03:17:03;;;;;;;;;;;19.10;89.10;;;;;;5097821;28;20117;-64
2022/08/09 03:19:34;;;;;;;;;;;19.10;89.30;;;;;;5098263;28;20625;-64
2022/08/09 03:22:22;;;;;;;;;;;19.00;89.50;;;;;;5098098;28;20412;-64
2022/08/09 03:24:57;;;;;;;;;;;18.90;89.90;;;;;;5097908;28;20662;-64
2022/08/09 03:27:46;;;;;;;;;;;18.80;90.10;;;;;;5116897;22;20011;-64
2022/08/09 03:30:15;;;;;;;;;;;18.80;90.20;;;;;;5074465;28;20022;-64
2022/08/09 03:33:02;;;;;;;;;;;18.80;90.40;;;;;;5075595;28;19977;-64
2022/08/09 03:35:41;;;;;;;;;;;18.70;90.50;;;;;;5076138;28;20026;-64
2022/08/09 03:38:29;;;;;;;;;;;18.70;90.70;;;;;;5075801;28;20668;-64
2022/08/09 03:40:57;;;;;;;;;;;18.60;90.80;;;;;;5075654;28;20012;-64
2022/08/09 03:43:26;;;;;;;;;;;18.60;90.90;;;;;;5075859;28;21202;-64
2022/08/09 03:45:58;;;;;;;;;;;18.60;91.10;;;;;;5075960;28;20028;-64
2022/08/09 03:48:46;;;;;;;;;;;18.50;91.20;;;;;;5075287;28;19999;-64
2022/08/09 03:51:21;;;;;;;;;;;18.60;91.30;;;;;;5075398;28;20049;-64
2022/08/09 03:54:09;;;;;;;;;;;18.50;91.30;;;;;;5075459;28;20506;-64
2022/08/09 03:56:38;;;;;;;;;;;18.50;91.50;;;;;;5075646;28;20123;-64
2022/08/09 03:59:08;;;;;;;;;;;18.50;91.70;;;;;;5075220;28;20338;-65
2022/08/09 04:01:48;;;;;;;;;;;18.40;91.90;;;;;;5075401;28;20620;-64
2022/08/09 04:04:17;;;;;;;;;;;18.40;92.00;;;;;;5075750;28;20753;-64
2022/08/09 04:06:47;;;;;;;;;;;18.30;92.40;;;;;;5075581;28;20899;-64
2022/08/09 04:09:16;;;;;;;;;;;18.30;92.20;;;;;;5075228;28;20736;-64
2022/08/09 04:12:19;;;;;;;;;;;18.30;92.30;;;;;;5075636;28;20200;-64
2022/08/09 04:15:07;;;;;;;;;;;18.30;92.50;;;;;;5075244;28;21198;-64
2022/08/09 04:17:38;;;;;;;;;;;18.30;92.70;;;;;;5075214;28;21308;-64
2022/08/09 04:20:11;;;;;;;;;;;18.30;92.80;;;;;;5075008;28;20502;-64
2022/08/09 04:22:42;;;;;;;;;;;18.30;92.80;;;;;;5074969;28;20713;-64
2022/08/09 04:25:11;;;;;;;;;;;18.30;93.00;;;;;;5075196;28;20113;-64
2022/08/09 04:27:40;;;;;;;;;;;18.20;93.10;;;;;;5075105;28;21081;-64
2022/08/09 04:30:14;;;;;;;;;;;18.20;93.30;;;;;;5074237;28;20346;-64
2022/08/09 04:32:42;;;;;;;;;;;18.20;93.40;;;;;;5073954;28;20812;-64
2022/08/09 04:35:13;;;;;;;;;;;18.20;93.60;;;;;;5074918;28;20160;-64
2022/08/09 04:37:43;;;;;;;;;;;18.20;93.70;;;;;;5074616;28;20802;-64
2022/08/09 04:40:12;;;;;;;;;;;18.10;93.80;;;;;;5073003;28;25116;-64
2022/08/09 04:42:55;;;;;;;;;;;18.20;93.90;;;;;;5074907;28;20427;-64
2022/08/09 04:45:23;;;;;;;;;;;18.20;93.90;;;;;;5074614;28;20167;-64
2022/08/09 04:47:58;;;;;;;;;;;18.20;94.00;;;;;;5074943;28;20662;-64
2022/08/09 04:50:34;;;;;;;;;;;18.30;94.10;;;;;;5074519;28;21048;-64
2022/08/09 04:53:06;;;;;;;;;;;18.30;94.10;;;;;;5074741;28;20495;-64
2022/08/09 04:55:40;;;;;;;;;;;18.30;94.20;;;;;;5075060;28;20172;-64
2022/08/09 04:58:26;;;;;;;;;;;18.40;94.20;;;;;;5075086;28;20033;-64
2022/08/09 05:00:56;;;;;;;;;;;18.40;94.50;;;;;;5074653;28;20170;-64
2022/08/09 05:03:24;;;;;;;;;;;18.40;94.40;;;;;;5074762;28;21260;-64
2022/08/09 05:06:10;;;;;;;;;;;18.40;94.70;;;;;;5074372;28;20266;-64
2022/08/09 05:08:50;;;;;;;;;;;18.50;94.60;;;;;;5074096;28;19981;-64
2022/08/09 05:11:17;;;;;;;;;;;18.50;94.70;;;;;;5074007;28;21274;-64
2022/08/09 05:13:47;;;;;;;;;;;18.60;94.50;;;;;;5074774;28;20031;-64
2022/08/09 05:16:15;;;;;;;;;;;18.60;94.60;;;;;;5074469;28;20363;-64
2022/08/09 05:18:45;;;;;;;;;;;18.70;94.70;;;;;;5074058;28;19976;-64
2022/08/09 05:21:26;;;;;;;;;;;18.70;94.70;;;;;;5073861;28;26120;-64
2022/08/09 05:23:58;;;;;;;;;;;18.80;94.70;;;;;;5074174;28;20369;-64
2022/08/09 05:26:30;;;;;;;;;;;18.90;94.90;;;;;;5074357;28;20219;-64
2022/08/09 05:29:04;;;;;;;;;;;19.00;94.90;;;;;;5074293;28;20647;-64
2022/08/09 05:31:32;;;;;;;;;;;19.00;94.70;;;;;;5073154;28;21229;-64
2022/08/09 05:34:14;;;;;;;;;;;19.10;95.00;;;;;;5074429;28;20387;-64
2022/08/09 05:36:44;;;;;;;;;;;19.20;95.20;;;;;;5074480;28;19978;-64
2022/08/09 05:39:15;;;;;;;;;;;19.30;95.30;;;;;;5073697;28;20737;-64
2022/08/09 05:41:56;;;;;;;;;;;19.40;95.00;;;;;;5073543;28;20521;-64
2022/08/09 05:44:31;;;;;;;;;;;19.50;95.10;;;;;;5074031;28;19995;-64
2022/08/09 05:47:02;;;;;;;;;;;19.60;94.50;;;;;;5073899;28;20150;-64
2022/08/09 05:49:32;;;;;;;;;;;19.70;94.60;;;;;;5072952;28;20074;-64
2022/08/09 05:52:20;;;;;;;;;;;19.80;94.30;;;;;;5073174;28;20059;-64
2022/08/09 05:54:52;;;;;;;;;;;19.90;94.20;;;;;;5073525;28;20409;-64
2022/08/09 05:57:21;;;;;;;;;;;20.10;94.50;;;;;;5073098;28;20201;-64
2022/08/09 06:00:10;;;;;;;;;;;20.20;94.30;;;;;;5073451;28;20197;-64
2022/08/09 06:02:38;;;;;;;;;;;20.30;94.30;;;;;;5073018;28;20880;-64
2022/08/09 06:05:13;;;;;;;;;;;20.50;94.30;;;;;;5073078;28;20863;-64
2022/08/09 06:07:42;;;;;;;;;;;20.60;93.80;;;;;;5072609;28;20845;-64
2022/08/09 06:10:17;;;;;;;;;;;20.80;94.40;;;;;;5072233;28;20360;-64
2022/08/09 06:12:46;;;;;;;;;;;21.00;93.80;;;;;;5072947;28;20009;-64
2022/08/09 06:15:25;;;;;;;;;;;21.10;93.50;;;;;;5072535;28;20398;-65
2022/08/09 06:17:55;;;;;;;;;;;21.20;93.20;;;;;;5072600;28;20142;-64
2022/08/09 06:20:22;;;;;;;;;;;21.40;92.30;;;;;;5072607;28;19969;-65
2022/08/09 06:22:51;;;;;;;;;;;21.60;91.00;;;;;;5054231;28;20931;-64
2022/08/09 06:25:20;;;;;;;;;;;21.60;90.70;;;;;;5072376;28;20036;-65
2022/08/09 06:27:48;;;;;;;;;;;21.70;90.80;;;;;;5072148;28;20470;-65
2022/08/09 06:30:18;;;;;;;;;;;21.90;90.80;;;;;;5072395;28;20765;-64
2022/08/09 06:32:46;;;;;;;;;;;22.00;90.20;;;;;;5072522;28;20056;-64
2022/08/09 06:35:34;;;;;;;;;;;22.20;90.40;;;;;;5072360;28;20163;-64
2022/08/09 06:38:21;;;;;;;;;;;22.30;90.00;;;;;;5072365;28;20715;-64
2022/08/09 06:41:00;;;;;;;;;;;22.30;88.90;;;;;;5072360;28;20079;-64
2022/08/09 06:43:30;;;;;;;;;;;22.40;88.90;;;;;;5072448;28;20911;-64
2022/08/09 06:46:01;;;;;;;;;;;22.40;88.20;;;;;;5072226;28;20482;-64
2022/08/09 06:48:39;;;;;;;;;;;22.50;87.20;;;;;;5072731;28;20729;-64
2022/08/09 06:51:10;;;;;;;;;;;22.50;86.70;;;;;;5072387;28;20818;-64
2022/08/09 06:53:38;;;;;;;;;;;22.60;87.70;;;;;;5073027;28;20795;-64
2022/08/09 06:56:08;;;;;;;;;;;22.80;86.60;;;;;;5072291;28;25075;-64
2022/08/09 06:58:37;;;;;;;;;;;22.80;86.20;;;;;;5071725;28;20271;-64
2022/08/09 07:01:25;;;;;;;;;;;22.70;86.20;;;;;;5071446;28;20852;-64
2022/08/09 07:04:02;;;;;;;;;;;22.80;85.80;;;;;;5073225;28;21009;-65
2022/08/09 07:06:31;;;;;;;;;;;22.90;86.20;;;;;;5075902;28;20383;-64
2022/08/09 07:09:01;;;;;;;;;;;23.00;86.30;;;;;;5075903;28;20070;-65
2022/08/09 07:11:30;;;;;;;;;;;23.20;86.60;;;;;;5075598;28;20151;-64
2022/08/09 07:14:18;;;;;;;;;;;23.20;84.70;;;;;;5075903;28;21153;-64
2022/08/09 07:16:53;;;;;;;;;;;23.20;85.30;;;;;;5075676;28;20401;-64
2022/08/09 07:19:25;;;;;;;;;;;23.20;85.00;;;;;;5076172;28;20532;-65
2022/08/09 07:21:53;;;;;;;;;;;23.30;85.10;;;;;;5075404;28;20174;-64
2022/08/09 07:24:25;;;;;;;;;;;23.30;85.30;;;;;;5076481;28;19999;-64
2022/08/09 07:27:08;;;;;;;;;;;23.40;85.80;;;;;;5075414;28;20014;-64
2022/08/09 07:29:54;;;;;;;;;;;23.60;84.80;;;;;;5055054;28;20682;-64
2022/08/09 07:32:24;;;;;;;;;;;23.80;85.10;;;;;;5054822;28;19970;-64
2022/08/09 07:35:02;;;;;;;;;;;23.80;84.20;;;;;;5055552;28;20474;-64
2022/08/09 07:37:39;;;;;;;;;;;23.90;85.20;;;;;;5055369;28;20694;-64
2022/08/09 07:40:12;;;;;;;;;;;24.10;84.90;;;;;;5055194;28;20308;-66
2022/08/09 07:42:52;;;;;;;;;;;24.20;84.70;;;;;;5055587;28;20813;-64
2022/08/09 07:45:25;;;;;;;;;;;24.40;83.80;;;;;;5054938;28;21216;-64
2022/08/09 07:48:05;;;;;;;;;;;24.50;83.70;;;;;;5054882;28;20673;-65
2022/08/09 07:50:34;;;;;;;;;;;24.60;82.10;;;;;;5054657;28;20935;-64
2022/08/09 07:53:03;;;;;;;;;;;24.60;82.80;;;;;;5054744;28;25104;-65
2022/08/09 07:55:32;;;;;;;;;;;24.80;82.80;;;;;;5055136;28;20153;-65
2022/08/09 07:58:21;;;;;;;;;;;24.90;81.10;;;;;;5055040;28;20191;-65
2022/08/09 08:00:53;;;;;;;;;;;25.00;81.40;;;;;;5054228;28;20236;-65
2022/08/09 08:03:33;;;;;;;;;;;24.90;80.70;;;;;;5054500;28;25112;-64
2022/08/09 08:06:03;;;;;;;;;;;24.90;81.30;;;;;;5054886;28;20156;-65
2022/08/09 08:08:32;;;;;;;;;;;25.10;81.40;;;;;;5054414;28;20094;-65
2022/08/09 08:11:19;;;;;;;;;;;25.20;80.70;;;;;;5054194;28;20279;-65
2022/08/09 08:14:08;;;;;;;;;;;25.30;80.80;;;;;;5054568;28;20391;-65
2022/08/09 08:16:36;;;;;;;;;;;25.50;79.70;;;;;;5054621;28;20204;-65
2022/08/09 08:19:17;;;;;;;;;;;25.70;80.30;;;;;;5054307;28;20253;-65
2022/08/09 08:21:49;;;;;;;;;;;25.90;79.30;;;;;;5054392;28;20087;-64
2022/08/09 08:24:19;;;;;;;;;;;26.00;79.10;;;;;;5054447;28;20221;-65
2022/08/09 08:26:47;;;;;;;;;;;26.10;80.20;;;;;;5054069;28;20212;-64
2022/08/09 08:29:24;;;;;;;;;;;26.20;78.70;;;;;;5070770;28;20225;-65
2022/08/09 08:31:55;;;;;;;;;;;26.30;77.50;;;;;;5073617;28;20099;-64
2022/08/09 08:34:32;;;;;;;;;;;26.20;78.10;;;;;;5074360;28;25080;-65
2022/08/09 08:37:03;;;;;;;;;;;26.30;78.70;;;;;;5074522;28;20540;-65
2022/08/09 08:39:31;;;;;;;;;;;26.50;78.10;;;;;;5073424;28;20259;-64
2022/08/09 08:42:11;;;;;;;;;;;26.70;77.90;;;;;;5073477;28;20652;-65
2022/08/09 08:44:41;;;;;;;;;;;26.90;77.40;;;;;;5073476;28;20077;-65
2022/08/09 08:47:09;;;;;;;;;;;26.90;78.20;;;;;;5073381;28;20763;-65
2022/08/09 08:49:40;;;;;;;;;;;26.80;77.50;;;;;;5073248;28;20375;-65
2022/08/09 08:52:16;;;;;;;;;;;26.80;77.40;;;;;;5073140;28;20290;-65
2022/08/09 08:55:04;;;;;;;;;;;27.00;78.30;;;;;;5073675;28;20231;-65
2022/08/09 08:57:32;;;;;;;;;;;27.30;77.70;;;;;;5073350;28;20218;-65
2022/08/09 09:00:05;;;;;;;;;;;27.50;78.60;;;;;;5073283;28;20207;-65
2022/08/09 09:02:48;;;;;;;;;;;27.80;76.80;;;;;;5073022;28;20211;-65
2022/08/09 09:05:21;;;;;;;;;;;27.80;77.60;;;;;;5073305;28;20624;-65
2022/08/09 09:08:10;;;;;;;;;;;27.90;75.80;;;;;;5072917;28;20592;-65
2022/08/09 09:11:00;;;;;;;;;;;28.00;76.50;;;;;;5072627;28;20748;-65
2022/08/09 09:13:28;;;;;;;;;;;27.70;76.10;;;;;;5073261;28;20198;-65
2022/08/09 09:16:10;;;;;;;;;;;27.70;75.80;;;;;;5072771;28;20202;-65
2022/08/09 09:18:38;;;;;;;;;;;28.00;75.60;;;;;;5072727;28;20706;-65
2022/08/09 09:21:15;;;;;;;;;;;28.10;76.40;;;;;;5072713;28;20210;-65
2022/08/09 09:23:52;;;;;;;;;;;28.20;76.80;;;;;;5072810;28;20208;-65
2022/08/09 09:26:33;;;;;;;;;;;28.70;75.90;;;;;;5072029;28;20226;-65
2022/08/09 09:29:01;;;;;;;;;;;28.90;73.70;;;;;;5096046;22;20194;-65
2022/08/09 09:31:49;;;;;;;;;;;29.00;74.40;;;;;;5062727;28;20201;-65
2022/08/09 09:34:38;;;;;;;;;;;28.90;74.30;;;;;;5072458;28;20244;-65
2022/08/09 09:37:26;;;;;;;;;;;29.10;73.80;;;;;;5072488;28;20214;-65
2022/08/09 09:39:59;;;;;;;;;;;29.30;74.70;;;;;;5090281;28;20204;-66
2022/08/09 09:42:29;;;;;;;;;;;29.60;73.00;;;;;;5092610;28;20621;-65
2022/08/09 09:44:58;;;;;;;;;;;29.90;72.60;;;;;;5092849;28;20276;-65
2022/08/09 09:47:29;;;;;;;;;;;30.00;72.60;;;;;;5092457;28;20622;-65
2022/08/09 09:50:00;;;;;;;;;;;30.10;71.50;;;;;;5092191;28;20211;-65
2022/08/09 09:52:48;;;;;;;;;;;30.30;71.50;;;;;;5092319;28;20214;-65
2022/08/09 09:55:21;;;;;;;;;;;30.20;70.60;;;;;;5092482;28;20291;-65
2022/08/09 09:58:00;;;;;;;;;;;30.20;70.80;;;;;;5092049;28;20777;-65
2022/08/09 10:00:47;;;;;;;;;;;30.30;71.30;;;;;;5091980;28;20185;-65
2022/08/09 10:03:38;;;;;;;;;;;30.30;70.40;;;;;;5092303;28;20756;-65
2022/08/09 10:06:07;;;;;;;;;;;30.60;71.00;;;;;;5091791;28;20279;-65
2022/08/09 10:08:34;;;;;;;;;;;30.60;69.30;;;;;;5091874;28;20197;-65
2022/08/09 10:11:23;;;;;;;;;;;30.70;68.50;;;;;;5091977;28;20285;-65
2022/08/09 10:14:21;;;;;;;;;;;30.60;68.50;;;;;;5092139;28;20090;-65
2022/08/09 10:16:57;;;;;;;;;;;30.60;68.80;;;;;;5091993;28;20203;-65
2022/08/09 10:19:46;;;;;;;;;;;30.80;68.60;;;;;;5091788;28;20216;-66
2022/08/09 10:22:28;;;;;;;;;;;31.10;67.40;;;;;;5092012;28;20116;-67
2022/08/09 10:25:00;;;;;;;;;;;31.30;67.20;;;;;;5092233;28;20215;-66
2022/08/09 10:27:38;;;;;;;;;;;31.70;67.20;;;;;;5091688;28;20340;-66
2022/08/09 10:30:25;;;;;;;;;;;31.70;67.10;;;;;;5071632;28;20209;-66
2022/08/09 10:33:13;;;;;;;;;;;31.50;65.40;;;;;;5071722;28;20206;-65
2022/08/09 10:36:03;;;;;;;;;;;31.70;66.90;;;;;;5071838;28;20257;-65
2022/08/09 10:38:32;;;;;;;;;;;31.80;66.10;;;;;;5074123;28;20204;-65
2022/08/09 10:41:19;;;;;;;;;;;32.00;64.60;;;;;;5075807;28;20581;-65
2022/08/09 10:43:48;;;;;;;;;;;31.70;63.50;;;;;;5075521;28;20271;-65
2022/08/09 10:46:34;;;;;;;;;;;31.50;64.10;;;;;;5075480;28;20259;-65
2022/08/09 10:49:24;;;;;;;;;;;31.50;64.20;;;;;;5075152;28;20200;-66
2022/08/09 10:52:18;;;;;;;;;;;31.30;64.20;;;;;;5075407;28;20215;-65
2022/08/09 10:54:49;;;;;;;;;;;31.60;64.20;;;;;;5075838;28;20115;-65
2022/08/09 10:57:22;;;;;;;;;;;31.90;64.30;;;;;;5075194;28;20219;-66
2022/08/09 10:59:49;;;;;;;;;;;32.40;63.70;;;;;;5075045;28;20498;-65
2022/08/09 11:02:35;;;;;;;;;;;32.40;63.20;;;;;;5075533;28;20247;-65
2022/08/09 11:05:25;;;;;;;;;;;32.50;62.80;;;;;;5075137;28;20688;-66
2022/08/09 11:08:18;;;;;;;;;;;32.50;63.70;;;;;;5074636;28;20096;-65
2022/08/09 11:11:00;;;;;;;;;;;32.50;64.10;;;;;;5074655;28;20082;-65
2022/08/09 11:13:35;;;;;;;;;;;32.60;62.30;;;;;;5075304;28;20230;-65
2022/08/09 11:16:36;;;;;;;;;;;32.40;62.50;;;;;;5074862;28;20211;-66
2022/08/09 11:19:06;;;;;;;;;;;32.50;62.40;;;;;;5074825;28;20196;-66
2022/08/09 11:21:53;;;;;;;;;;;32.30;63.10;;;;;;5074828;28;20210;-65
2022/08/09 11:25:04;;;;;;;;;;;32.40;62.00;;;;;;5074987;28;20232;-66
2022/08/09 11:27:37;;;;;;;;;;;32.50;62.90;;;;;;5074722;28;20253;-65
2022/08/09 11:30:31;;;;;;;;;;;32.30;61.70;;;;;;5074548;28;20276;-65
2022/08/09 11:33:03;;;;;;;;;;;32.00;63.60;;;;;;5074855;28;20198;-66
2022/08/09 11:35:33;;;;;;;;;;;32.20;62.80;;;;;;5074542;28;20616;-65
2022/08/09 11:38:19;;;;;;;;;;;32.40;62.80;;;;;;5074496;28;20240;-65
2022/08/09 11:40:51;;;;;;;;;;;32.40;61.60;;;;;;5074381;28;20581;-65
2022/08/09 11:43:38;;;;;;;;;;;32.40;61.30;;;;;;5074415;28;20565;-65
2022/08/09 11:46:06;;;;;;;;;;;32.70;62.40;;;;;;5074470;28;20251;-65
2022/08/09 11:48:45;;;;;;;;;;;32.80;61.70;;;;;;5074164;28;20193;-65
2022/08/09 11:51:13;;;;;;;;;;;33.10;60.60;;;;;;5073735;28;20545;-65
2022/08/09 11:54:11;;;;;;;;;;;33.40;61.10;;;;;;5074448;28;20224;-65
2022/08/09 11:56:42;;;;;;;;;;;33.40;61.20;;;;;;5074402;28;20545;-65
2022/08/09 11:59:26;;;;;;;;;;;33.90;61.00;;;;;;5074180;28;20188;-65
2022/08/09 12:02:00;;;;;;;;;;;33.40;60.00;;;;;;5074269;28;20599;-64
2022/08/09 12:04:50;;;;;;;;;;;33.30;60.30;;;;;;5074291;28;20647;-66
2022/08/09 12:07:28;;;;;;;;;;;33.40;60.40;;;;;;5074239;28;20260;-65
2022/08/09 12:10:10;;;;;;;;;;;33.30;60.80;;;;;;5073734;28;20200;-66
2022/08/09 12:13:00;;;;;;;;;;;33.30;59.10;;;;;;5074186;28;20189;-65
2022/08/09 12:15:47;;;;;;;;;;;33.50;59.70;;;;;;5074018;28;20212;-66
2022/08/09 12:18:19;;;;;;;;;;;34.10;59.20;;;;;;5073718;28;20188;-66
2022/08/09 12:20:57;;;;;;;;;;;33.70;59.80;;;;;;5073712;28;20196;-66
2022/08/09 12:23:27;;;;;;;;;;;33.20;60.60;;;;;;5073881;28;20181;-65
2022/08/09 12:26:14;;;;;;;;;;;33.10;60.60;;;;;;5073852;28;20675;-66
2022/08/09 12:28:55;;;;;;;;;;;33.50;59.80;;;;;;5081611;28;20243;-65
2022/08/09 12:31:43;;;;;;;;;;;34.20;59.40;;;;;;5093301;28;20277;-65
2022/08/09 12:34:32;;;;;;;;;;;34.60;59.20;;;;;;5093750;28;20202;-65
2022/08/09 12:37:02;;;;;;;;;;;34.40;58.40;;;;;;5093609;28;20604;-65
2022/08/09 12:39:58;;;;;;;;;;;34.60;58.90;;;;;;5093485;28;20267;-65
2022/08/09 12:42:27;;;;;;;;;;;34.70;58.50;;;;;;5094023;28;20217;-66
2022/08/09 12:44:58;;;;;;;;;;;34.20;58.50;;;;;;5093657;28;20247;-65
2022/08/09 12:47:27;;;;;;;;;;;34.30;59.20;;;;;;5093252;28;20176;-65
2022/08/09 12:50:19;;;;;;;;;;;34.30;59.00;;;;;;5093283;28;20515;-66
2022/08/09 12:52:52;;;;;;;;;;;33.80;58.40;;;;;;5093445;28;20181;-66
2022/08/09 12:55:39;;;;;;;;;;;33.80;58.20;;;;;;5093308;28;20176;-65
2022/08/09 12:58:27;;;;;;;;;;;33.60;58.30;;;;;;5093259;28;20246;-65
2022/08/09 13:00:57;;;;;;;;;;;33.50;58.50;;;;;;5092360;28;20646;-65
2022/08/09 13:03:30;;;;;;;;;;;33.80;58.70;;;;;;5092830;28;20199;-66
2022/08/09 13:06:24;;;;;;;;;;;34.40;58.20;;;;;;5093433;28;20669;-66
2022/08/09 13:09:03;;;;;;;;;;;35.00;57.50;;;;;;5093162;28;20192;-65
2022/08/09 13:11:33;;;;;;;;;;;35.60;56.60;;;;;;5092726;28;20715;-66
2022/08/09 13:14:13;;;;;;;;;;;36.20;56.00;;;;;;5092923;28;20220;-66
2022/08/09 13:17:03;;;;;;;;;;;36.00;56.40;;;;;;5093270;28;20246;-66
2022/08/09 13:19:32;;;;;;;;;;;35.50;55.60;;;;;;5092553;28;20196;-65
2022/08/09 13:22:21;;;;;;;;;;;35.70;55.30;;;;;;5092846;28;20207;-66
2022/08/09 13:25:09;;;;;;;;;;;35.70;55.30;;;;;;5093045;28;20206;-65
2022/08/09 13:27:41;;;;;;;;;;;35.30;55.70;;;;;;5092625;28;20641;-66
2022/08/09 13:30:22;;;;;;;;;;;34.50;55.20;;;;;;5108357;28;20624;-65
2022/08/09 13:33:11;;;;;;;;;;;34.30;56.50;;;;;;5092467;28;20168;-65
2022/08/09 13:35:47;;;;;;;;;;;35.00;55.50;;;;;;5092736;28;20186;-65
2022/08/09 13:38:36;;;;;;;;;;;34.80;55.50;;;;;;5092289;28;20234;-65
2022/08/09 13:41:24;;;;;;;;;;;35.40;56.40;;;;;;5092430;28;20206;-66
2022/08/09 13:44:12;;;;;;;;;;;36.00;55.00;;;;;;5092760;28;20220;-65
2022/08/09 13:46:44;;;;;;;;;;;35.90;54.50;;;;;;5092439;28;20169;-66
2022/08/09 13:49:33;;;;;;;;;;;36.00;54.70;;;;;;5092145;28;20235;-66
2022/08/09 13:52:21;;;;;;;;;;;35.20;55.40;;;;;;5092341;28;20218;-66
2022/08/09 13:54:49;;;;;;;;;;;35.70;55.10;;;;;;5092353;28;20206;-65
2022/08/09 13:57:33;;;;;;;;;;;34.60;55.00;;;;;;5092143;28;20222;-66
2022/08/09 14:00:08;;;;;;;;;;;34.50;55.00;;;;;;5091805;28;20229;-65
2022/08/09 14:02:36;;;;;;;;;;;34.80;55.90;;;;;;5092090;28;20156;-66
2022/08/09 14:05:25;;;;;;;;;;;34.90;55.00;;;;;;5092305;28;20227;-65
2022/08/09 14:08:13;;;;;;;;;;;35.00;54.30;;;;;;5091838;28;20240;-66
2022/08/09 14:10:45;;;;;;;;;;;35.10;54.90;;;;;;5092049;28;20182;-66
2022/08/09 14:13:20;;;;;;;;;;;34.80;54.60;;;;;;5091988;28;20250;-65
2022/08/09 14:16:11;;;;;;;;;;;35.00;55.00;;;;;;5092033;28;20161;-65
2022/08/09 14:18:42;;;;;;;;;;;35.90;54.30;;;;;;5091837;28;20289;-65
2022/08/09 14:21:17;;;;;;;;;;;35.60;54.50;;;;;;5073760;28;20162;-66
2022/08/09 14:23:48;;;;;;;;;;;35.80;53.90;;;;;;5092304;28;20218;-65
2022/08/09 14:26:23;;;;;;;;;;;35.90;54.50;;;;;;5092060;28;20168;-65
2022/08/09 14:28:57;;;;;;;;;;;36.20;53.70;;;;;;5091344;28;20218;-66
2022/08/09 14:31:24;;;;;;;;;;;35.90;54.50;;;;;;5091130;28;20189;-66
2022/08/09 14:34:13;;;;;;;;;;;35.50;54.80;;;;;;5091734;28;20194;-66
2022/08/09 14:36:45;;;;;;;;;;;35.50;54.70;;;;;;5091913;28;20659;-65
2022/08/09 14:39:16;;;;;;;;;;;35.70;54.30;;;;;;5091622;28;20298;-65
2022/08/09 14:41:43;;;;;;;;;;;36.00;54.30;;;;;;5091429;28;20215;-65
2022/08/09 14:44:14;;;;;;;;;;;36.20;53.80;;;;;;5091749;28;20417;-65
2022/08/09 14:46:59;;;;;;;;;;;36.30;54.10;;;;;;5091784;28;20133;-65
2022/08/09 14:49:47;;;;;;;;;;;36.40;54.00;;;;;;5091291;28;20259;-66
2022/08/09 14:52:30;;;;;;;;;;;35.70;53.70;;;;;;5091542;28;25061;-65
2022/08/09 14:54:58;;;;;;;;;;;34.90;54.30;;;;;;5091462;28;25078;-65
2022/08/09 14:57:26;;;;;;;;;;;34.50;54.90;;;;;;5091693;28;20194;-66
2022/08/09 15:00:10;;;;;;;;;;;34.20;54.70;;;;;;5090931;28;25058;-65
2022/08/09 15:02:38;;;;;;;;;;;34.30;54.70;;;;;;5091682;28;20409;-65
2022/08/09 15:05:09;;;;;;;;;;;34.80;55.10;;;;;;5091392;28;25082;-65
2022/08/09 15:07:38;;;;;;;;;;;35.20;54.40;;;;;;5091528;28;20090;-65
2022/08/09 15:10:11;;;;;;;;;;;34.70;54.50;;;;;;5090945;28;20224;-65
2022/08/09 15:12:43;;;;;;;;;;;34.80;54.30;;;;;;5091552;28;25081;-65